sensor_id;sensor_type;location;lat;lon;timestamp;P1;durP1;ratioP1;P2;durP2;ratioP2
20379;SDS011;10349;48.666;8.948;2022-07-23T00:01:18;6.27;;;5.60;;
20379;SDS011;10349;48.666;8.948;2022-07-23T00:03:44;5.50;;;5.10;;
20379;SDS011;10349;48.666;8.948;2022-07-23T00:06:10;5.70;;;5.20;;
20379;SDS011;10349;48.666;8.948;2022-07-23T00:08:35;6.17;;;5.53;;
20379;SDS011;10349;48.666;8.948;2022-07-23T00:11:01;5.43;;;5.03;;
20379;SDS011;10349;48.666;8.948;2022-07-23T00:13:27;4.93;;;4.63;;
20379;SDS011;10349;48.666;8.948;2022-07-23T00:15:53;6.37;;;5.17;;
20379;SDS011;10349;48.666;8.948;2022-07-23T00:18:18;5.47;;;5.07;;
20379;SDS011;10349;48.666;8.948;2022-07-23T00:20:44;8.47;;;5.10;;
20379;SDS011;10349;48.666;8.948;2022-07-23T00:23:10;5.63;;;5.13;;
20379;SDS011;10349;48.666;8.948;2022-07-23T00:25:35;4.77;;;4.37;;
20379;SDS011;10349;48.666;8.948;2022-07-23T00:28:01;5.37;;;4.97;;
20379;SDS011;10349;48.666;8.948;2022-07-23T00:30:28;5.67;;;5.10;;
20379;SDS011;10349;48.666;8.948;2022-07-23T00:32:58;5.23;;;4.93;;
20379;SDS011;10349;48.666;8.948;2022-07-23T00:35:27;8.93;;;5.10;;
20379;SDS011;10349;48.666;8.948;2022-07-23T00:37:55;5.33;;;4.93;;
20379;SDS011;10349;48.666;8.948;2022-07-23T00:40:21;6.07;;;5.57;;
20379;SDS011;10349;48.666;8.948;2022-07-23T00:42:47;5.43;;;4.87;;
20379;SDS011;10349;48.666;8.948;2022-07-23T00:45:13;6.20;;;5.70;;
20379;SDS011;10349;48.666;8.948;2022-07-23T00:47:39;5.03;;;4.60;;
20379;SDS011;10349;48.666;8.948;2022-07-23T00:50:06;5.93;;;5.53;;
20379;SDS011;10349;48.666;8.948;2022-07-23T00:52:34;8.13;;;5.23;;
20379;SDS011;10349;48.666;8.948;2022-07-23T00:55:00;4.93;;;4.60;;
20379;SDS011;10349;48.666;8.948;2022-07-23T00:57:27;5.47;;;4.97;;
20379;SDS011;10349;48.666;8.948;2022-07-23T00:59:52;4.63;;;4.33;;
20379;SDS011;10349;48.666;8.948;2022-07-23T01:02:18;5.50;;;5.00;;
20379;SDS011;10349;48.666;8.948;2022-07-23T01:04:44;4.90;;;4.37;;
20379;SDS011;10349;48.666;8.948;2022-07-23T01:07:10;4.83;;;4.50;;
20379;SDS011;10349;48.666;8.948;2022-07-23T01:09:36;4.33;;;3.80;;
20379;SDS011;10349;48.666;8.948;2022-07-23T01:12:02;4.43;;;4.10;;
20379;SDS011;10349;48.666;8.948;2022-07-23T01:14:29;4.37;;;4.07;;
20379;SDS011;10349;48.666;8.948;2022-07-23T01:16:54;5.43;;;4.93;;
20379;SDS011;10349;48.666;8.948;2022-07-23T01:19:20;4.90;;;4.40;;
20379;SDS011;10349;48.666;8.948;2022-07-23T01:21:48;4.60;;;4.30;;
20379;SDS011;10349;48.666;8.948;2022-07-23T01:24:16;4.80;;;4.43;;
20379;SDS011;10349;48.666;8.948;2022-07-23T01:26:52;6.93;;;5.10;;
20379;SDS011;10349;48.666;8.948;2022-07-23T01:29:18;5.03;;;4.63;;
20379;SDS011;10349;48.666;8.948;2022-07-23T01:31:45;5.47;;;5.07;;
20379;SDS011;10349;48.666;8.948;2022-07-23T01:34:11;4.73;;;4.43;;
20379;SDS011;10349;48.666;8.948;2022-07-23T01:36:37;4.87;;;4.57;;
20379;SDS011;10349;48.666;8.948;2022-07-23T01:39:04;4.83;;;4.50;;
20379;SDS011;10349;48.666;8.948;2022-07-23T01:41:31;4.83;;;4.43;;
20379;SDS011;10349;48.666;8.948;2022-07-23T01:43:56;4.80;;;4.50;;
20379;SDS011;10349;48.666;8.948;2022-07-23T01:46:23;4.43;;;4.13;;
20379;SDS011;10349;48.666;8.948;2022-07-23T01:48:49;5.20;;;4.80;;
20379;SDS011;10349;48.666;8.948;2022-07-23T01:51:29;5.80;;;4.70;;
20379;SDS011;10349;48.666;8.948;2022-07-23T01:54:03;6.53;;;5.97;;
20379;SDS011;10349;48.666;8.948;2022-07-23T01:56:29;4.93;;;4.63;;
20379;SDS011;10349;48.666;8.948;2022-07-23T01:58:54;5.23;;;4.80;;
20379;SDS011;10349;48.666;8.948;2022-07-23T02:01:21;5.40;;;5.00;;
20379;SDS011;10349;48.666;8.948;2022-07-23T02:03:46;5.20;;;4.80;;
20379;SDS011;10349;48.666;8.948;2022-07-23T02:06:12;6.27;;;5.77;;
20379;SDS011;10349;48.666;8.948;2022-07-23T02:08:37;4.67;;;4.23;;
20379;SDS011;10349;48.666;8.948;2022-07-23T02:11:03;4.77;;;4.43;;
20379;SDS011;10349;48.666;8.948;2022-07-23T02:13:32;5.20;;;4.80;;
20379;SDS011;10349;48.666;8.948;2022-07-23T02:15:58;4.60;;;4.30;;
20379;SDS011;10349;48.666;8.948;2022-07-23T02:18:24;5.13;;;4.80;;
20379;SDS011;10349;48.666;8.948;2022-07-23T02:20:50;4.47;;;4.10;;
20379;SDS011;10349;48.666;8.948;2022-07-23T02:23:16;5.63;;;5.20;;
20379;SDS011;10349;48.666;8.948;2022-07-23T02:25:42;4.93;;;4.53;;
20379;SDS011;10349;48.666;8.948;2022-07-23T02:28:08;4.90;;;4.50;;
20379;SDS011;10349;48.666;8.948;2022-07-23T02:30:34;5.73;;;5.23;;
20379;SDS011;10349;48.666;8.948;2022-07-23T02:33:00;5.50;;;5.10;;
20379;SDS011;10349;48.666;8.948;2022-07-23T02:35:26;5.03;;;4.73;;
20379;SDS011;10349;48.666;8.948;2022-07-23T02:37:51;5.60;;;5.10;;
20379;SDS011;10349;48.666;8.948;2022-07-23T02:40:17;5.70;;;5.20;;
20379;SDS011;10349;48.666;8.948;2022-07-23T02:42:44;5.63;;;5.23;;
20379;SDS011;10349;48.666;8.948;2022-07-23T02:45:09;5.57;;;5.07;;
20379;SDS011;10349;48.666;8.948;2022-07-23T02:47:35;5.47;;;5.03;;
20379;SDS011;10349;48.666;8.948;2022-07-23T02:50:01;6.63;;;6.03;;
20379;SDS011;10349;48.666;8.948;2022-07-23T02:52:28;6.17;;;5.30;;
20379;SDS011;10349;48.666;8.948;2022-07-23T02:54:53;6.33;;;5.73;;
20379;SDS011;10349;48.666;8.948;2022-07-23T02:57:19;6.10;;;5.57;;
20379;SDS011;10349;48.666;8.948;2022-07-23T02:59:45;5.43;;;4.93;;
20379;SDS011;10349;48.666;8.948;2022-07-23T03:02:10;5.77;;;5.27;;
20379;SDS011;10349;48.666;8.948;2022-07-23T03:04:37;5.20;;;4.90;;
20379;SDS011;10349;48.666;8.948;2022-07-23T03:07:02;6.17;;;5.60;;
20379;SDS011;10349;48.666;8.948;2022-07-23T03:09:28;7.80;;;6.03;;
20379;SDS011;10349;48.666;8.948;2022-07-23T03:11:54;5.67;;;5.27;;
20379;SDS011;10349;48.666;8.948;2022-07-23T03:14:19;5.83;;;5.33;;
20379;SDS011;10349;48.666;8.948;2022-07-23T03:16:45;9.90;;;5.60;;
20379;SDS011;10349;48.666;8.948;2022-07-23T03:19:11;6.00;;;5.60;;
20379;SDS011;10349;48.666;8.948;2022-07-23T03:21:36;5.60;;;5.20;;
20379;SDS011;10349;48.666;8.948;2022-07-23T03:24:06;5.70;;;5.30;;
20379;SDS011;10349;48.666;8.948;2022-07-23T03:26:33;5.30;;;4.90;;
20379;SDS011;10349;48.666;8.948;2022-07-23T03:28:59;6.20;;;5.60;;
20379;SDS011;10349;48.666;8.948;2022-07-23T03:31:26;5.90;;;5.40;;
20379;SDS011;10349;48.666;8.948;2022-07-23T03:33:52;6.57;;;5.97;;
20379;SDS011;10349;48.666;8.948;2022-07-23T03:36:17;6.30;;;5.87;;
20379;SDS011;10349;48.666;8.948;2022-07-23T03:38:44;5.47;;;5.07;;
20379;SDS011;10349;48.666;8.948;2022-07-23T03:41:10;6.60;;;6.00;;
20379;SDS011;10349;48.666;8.948;2022-07-23T03:43:36;5.63;;;5.10;;
20379;SDS011;10349;48.666;8.948;2022-07-23T03:46:02;5.60;;;5.10;;
20379;SDS011;10349;48.666;8.948;2022-07-23T03:48:28;6.03;;;5.53;;
20379;SDS011;10349;48.666;8.948;2022-07-23T03:50:54;5.53;;;5.03;;
20379;SDS011;10349;48.666;8.948;2022-07-23T03:53:20;5.73;;;5.33;;
20379;SDS011;10349;48.666;8.948;2022-07-23T03:55:45;6.17;;;5.67;;
20379;SDS011;10349;48.666;8.948;2022-07-23T03:58:11;6.37;;;5.77;;
20379;SDS011;10349;48.666;8.948;2022-07-23T04:00:36;7.23;;;4.67;;
20379;SDS011;10349;48.666;8.948;2022-07-23T04:03:02;6.23;;;5.73;;
20379;SDS011;10349;48.666;8.948;2022-07-23T04:05:28;5.87;;;5.37;;
20379;SDS011;10349;48.666;8.948;2022-07-23T04:08:03;9.23;;;5.20;;
20379;SDS011;10349;48.666;8.948;2022-07-23T04:10:30;6.00;;;5.50;;
20379;SDS011;10349;48.666;8.948;2022-07-23T04:12:55;5.83;;;5.30;;
20379;SDS011;10349;48.666;8.948;2022-07-23T04:15:21;5.10;;;4.70;;
20379;SDS011;10349;48.666;8.948;2022-07-23T04:17:46;5.77;;;5.37;;
20379;SDS011;10349;48.666;8.948;2022-07-23T04:20:13;5.20;;;4.80;;
20379;SDS011;10349;48.666;8.948;2022-07-23T04:22:46;6.47;;;5.87;;
20379;SDS011;10349;48.666;8.948;2022-07-23T04:25:12;6.47;;;5.87;;
20379;SDS011;10349;48.666;8.948;2022-07-23T04:27:38;6.73;;;5.63;;
20379;SDS011;10349;48.666;8.948;2022-07-23T04:30:04;5.90;;;5.50;;
20379;SDS011;10349;48.666;8.948;2022-07-23T04:32:30;6.23;;;5.30;;
20379;SDS011;10349;48.666;8.948;2022-07-23T04:34:56;6.30;;;5.80;;
20379;SDS011;10349;48.666;8.948;2022-07-23T04:37:22;5.80;;;5.30;;
20379;SDS011;10349;48.666;8.948;2022-07-23T04:39:48;6.87;;;6.17;;
20379;SDS011;10349;48.666;8.948;2022-07-23T04:42:13;5.30;;;4.90;;
20379;SDS011;10349;48.666;8.948;2022-07-23T04:44:40;6.03;;;4.80;;
20379;SDS011;10349;48.666;8.948;2022-07-23T04:47:07;5.80;;;5.30;;
20379;SDS011;10349;48.666;8.948;2022-07-23T04:49:32;5.47;;;4.90;;
20379;SDS011;10349;48.666;8.948;2022-07-23T04:51:58;6.30;;;5.80;;
20379;SDS011;10349;48.666;8.948;2022-07-23T04:54:24;6.73;;;6.10;;
20379;SDS011;10349;48.666;8.948;2022-07-23T04:56:49;6.30;;;5.80;;
20379;SDS011;10349;48.666;8.948;2022-07-23T04:59:16;5.73;;;5.30;;
20379;SDS011;10349;48.666;8.948;2022-07-23T05:01:42;6.87;;;6.33;;
20379;SDS011;10349;48.666;8.948;2022-07-23T05:04:08;5.80;;;5.40;;
20379;SDS011;10349;48.666;8.948;2022-07-23T05:06:36;5.57;;;5.07;;
20379;SDS011;10349;48.666;8.948;2022-07-23T05:09:01;6.57;;;6.00;;
20379;SDS011;10349;48.666;8.948;2022-07-23T05:11:28;5.93;;;5.53;;
20379;SDS011;10349;48.666;8.948;2022-07-23T05:13:54;7.03;;;6.53;;
20379;SDS011;10349;48.666;8.948;2022-07-23T05:16:20;6.93;;;6.27;;
20379;SDS011;10349;48.666;8.948;2022-07-23T05:18:47;5.83;;;5.33;;
20379;SDS011;10349;48.666;8.948;2022-07-23T05:21:12;6.33;;;5.83;;
20379;SDS011;10349;48.666;8.948;2022-07-23T05:23:39;7.10;;;6.40;;
20379;SDS011;10349;48.666;8.948;2022-07-23T05:26:04;5.77;;;5.27;;
20379;SDS011;10349;48.666;8.948;2022-07-23T05:28:31;6.20;;;5.70;;
20379;SDS011;10349;48.666;8.948;2022-07-23T05:30:57;6.33;;;5.40;;
20379;SDS011;10349;48.666;8.948;2022-07-23T05:33:22;6.17;;;5.60;;
20379;SDS011;10349;48.666;8.948;2022-07-23T05:35:48;5.87;;;5.47;;
20379;SDS011;10349;48.666;8.948;2022-07-23T05:38:25;6.87;;;5.73;;
20379;SDS011;10349;48.666;8.948;2022-07-23T05:40:51;7.33;;;5.77;;
20379;SDS011;10349;48.666;8.948;2022-07-23T05:43:18;7.20;;;6.60;;
20379;SDS011;10349;48.666;8.948;2022-07-23T05:45:43;6.37;;;5.77;;
20379;SDS011;10349;48.666;8.948;2022-07-23T05:48:09;5.63;;;5.23;;
20379;SDS011;10349;48.666;8.948;2022-07-23T05:50:42;6.03;;;5.53;;
20379;SDS011;10349;48.666;8.948;2022-07-23T05:53:34;6.63;;;6.13;;
20379;SDS011;10349;48.666;8.948;2022-07-23T05:56:21;6.47;;;6.07;;
20379;SDS011;10349;48.666;8.948;2022-07-23T05:58:47;7.20;;;6.53;;
20379;SDS011;10349;48.666;8.948;2022-07-23T06:01:15;8.23;;;7.43;;
20379;SDS011;10349;48.666;8.948;2022-07-23T06:03:59;7.17;;;6.57;;
20379;SDS011;10349;48.666;8.948;2022-07-23T06:06:32;7.33;;;6.73;;
20379;SDS011;10349;48.666;8.948;2022-07-23T06:08:57;7.00;;;6.47;;
20379;SDS011;10349;48.666;8.948;2022-07-23T06:11:23;7.53;;;6.83;;
20379;SDS011;10349;48.666;8.948;2022-07-23T06:13:48;7.10;;;6.50;;
20379;SDS011;10349;48.666;8.948;2022-07-23T06:16:14;8.00;;;7.33;;
20379;SDS011;10349;48.666;8.948;2022-07-23T06:18:40;8.63;;;7.77;;
20379;SDS011;10349;48.666;8.948;2022-07-23T06:21:06;8.87;;;7.93;;
20379;SDS011;10349;48.666;8.948;2022-07-23T06:23:32;8.93;;;7.00;;
20379;SDS011;10349;48.666;8.948;2022-07-23T06:25:58;7.63;;;7.03;;
20379;SDS011;10349;48.666;8.948;2022-07-23T06:28:23;7.87;;;7.27;;
20379;SDS011;10349;48.666;8.948;2022-07-23T06:30:49;8.00;;;7.30;;
20379;SDS011;10349;48.666;8.948;2022-07-23T06:33:15;7.50;;;6.90;;
20379;SDS011;10349;48.666;8.948;2022-07-23T06:35:40;8.03;;;7.33;;
20379;SDS011;10349;48.666;8.948;2022-07-23T06:38:06;7.47;;;6.83;;
20379;SDS011;10349;48.666;8.948;2022-07-23T06:40:33;7.60;;;7.00;;
20379;SDS011;10349;48.666;8.948;2022-07-23T06:42:59;7.30;;;6.57;;
20379;SDS011;10349;48.666;8.948;2022-07-23T06:45:26;8.10;;;7.33;;
20379;SDS011;10349;48.666;8.948;2022-07-23T06:47:52;7.13;;;6.63;;
20379;SDS011;10349;48.666;8.948;2022-07-23T06:50:18;10.40;;;6.60;;
20379;SDS011;10349;48.666;8.948;2022-07-23T06:52:43;8.57;;;7.43;;
20379;SDS011;10349;48.666;8.948;2022-07-23T06:55:09;6.47;;;5.93;;
20379;SDS011;10349;48.666;8.948;2022-07-23T06:57:35;6.47;;;6.07;;
20379;SDS011;10349;48.666;8.948;2022-07-23T07:00:01;7.00;;;6.40;;
20379;SDS011;10349;48.666;8.948;2022-07-23T07:02:27;8.00;;;6.60;;
20379;SDS011;10349;48.666;8.948;2022-07-23T07:04:53;6.40;;;5.90;;
20379;SDS011;10349;48.666;8.948;2022-07-23T07:07:21;7.20;;;6.50;;
20379;SDS011;10349;48.666;8.948;2022-07-23T07:09:46;6.17;;;5.67;;
20379;SDS011;10349;48.666;8.948;2022-07-23T07:12:12;6.90;;;6.20;;
20379;SDS011;10349;48.666;8.948;2022-07-23T07:14:38;5.83;;;5.43;;
20379;SDS011;10349;48.666;8.948;2022-07-23T07:17:03;11.00;;;6.63;;
20379;SDS011;10349;48.666;8.948;2022-07-23T07:19:29;8.60;;;6.57;;
20379;SDS011;10349;48.666;8.948;2022-07-23T07:21:55;7.50;;;6.23;;
20379;SDS011;10349;48.666;8.948;2022-07-23T07:24:21;7.13;;;6.33;;
20379;SDS011;10349;48.666;8.948;2022-07-23T07:26:47;6.80;;;6.23;;
20379;SDS011;10349;48.666;8.948;2022-07-23T07:29:13;7.60;;;6.90;;
20379;SDS011;10349;48.666;8.948;2022-07-23T07:31:39;6.30;;;5.90;;
20379;SDS011;10349;48.666;8.948;2022-07-23T07:34:04;6.80;;;5.63;;
20379;SDS011;10349;48.666;8.948;2022-07-23T07:36:30;6.30;;;5.80;;
20379;SDS011;10349;48.666;8.948;2022-07-23T07:38:56;5.70;;;5.27;;
20379;SDS011;10349;48.666;8.948;2022-07-23T07:41:21;6.47;;;5.97;;
20379;SDS011;10349;48.666;8.948;2022-07-23T07:43:49;7.60;;;6.43;;
20379;SDS011;10349;48.666;8.948;2022-07-23T07:46:15;6.80;;;6.20;;
20379;SDS011;10349;48.666;8.948;2022-07-23T07:48:41;6.13;;;5.63;;
20379;SDS011;10349;48.666;8.948;2022-07-23T07:51:07;7.87;;;7.17;;
20379;SDS011;10349;48.666;8.948;2022-07-23T07:53:32;6.80;;;6.07;;
20379;SDS011;10349;48.666;8.948;2022-07-23T07:55:58;5.83;;;5.33;;
20379;SDS011;10349;48.666;8.948;2022-07-23T07:58:24;6.97;;;5.70;;
20379;SDS011;10349;48.666;8.948;2022-07-23T08:00:50;6.20;;;5.70;;
20379;SDS011;10349;48.666;8.948;2022-07-23T08:03:16;6.40;;;5.90;;
20379;SDS011;10349;48.666;8.948;2022-07-23T08:05:42;5.27;;;4.87;;
20379;SDS011;10349;48.666;8.948;2022-07-23T08:08:07;7.13;;;6.50;;
20379;SDS011;10349;48.666;8.948;2022-07-23T08:10:34;5.63;;;5.27;;
20379;SDS011;10349;48.666;8.948;2022-07-23T08:13:00;5.70;;;5.10;;
20379;SDS011;10349;48.666;8.948;2022-07-23T08:15:27;5.73;;;5.33;;
20379;SDS011;10349;48.666;8.948;2022-07-23T08:17:54;5.17;;;4.87;;
20379;SDS011;10349;48.666;8.948;2022-07-23T08:20:21;5.90;;;5.33;;
20379;SDS011;10349;48.666;8.948;2022-07-23T08:22:58;5.37;;;4.97;;
20379;SDS011;10349;48.666;8.948;2022-07-23T08:25:32;6.93;;;6.43;;
20379;SDS011;10349;48.666;8.948;2022-07-23T08:28:00;5.57;;;5.07;;
20379;SDS011;10349;48.666;8.948;2022-07-23T08:30:27;5.43;;;5.03;;
20379;SDS011;10349;48.666;8.948;2022-07-23T08:35:29;8.90;;;5.50;;
20379;SDS011;10349;48.666;8.948;2022-07-23T08:37:57;6.30;;;5.70;;
20379;SDS011;10349;48.666;8.948;2022-07-23T08:40:27;8.50;;;6.20;;
20379;SDS011;10349;48.666;8.948;2022-07-23T08:42:55;5.97;;;5.47;;
20379;SDS011;10349;48.666;8.948;2022-07-23T08:45:22;7.37;;;6.37;;
20379;SDS011;10349;48.666;8.948;2022-07-23T08:47:53;6.40;;;5.90;;
20379;SDS011;10349;48.666;8.948;2022-07-23T08:50:20;6.57;;;6.07;;
20379;SDS011;10349;48.666;8.948;2022-07-23T08:52:51;6.00;;;5.50;;
20379;SDS011;10349;48.666;8.948;2022-07-23T08:55:18;5.50;;;5.20;;
20379;SDS011;10349;48.666;8.948;2022-07-23T08:57:47;7.27;;;6.67;;
20379;SDS011;10349;48.666;8.948;2022-07-23T09:00:14;5.87;;;5.37;;
20379;SDS011;10349;48.666;8.948;2022-07-23T09:02:42;7.20;;;6.53;;
20379;SDS011;10349;48.666;8.948;2022-07-23T09:05:09;5.63;;;5.33;;
20379;SDS011;10349;48.666;8.948;2022-07-23T09:08:02;6.10;;;5.60;;
20379;SDS011;10349;48.666;8.948;2022-07-23T09:13:23;6.23;;;5.73;;
20379;SDS011;10349;48.666;8.948;2022-07-23T09:15:56;6.50;;;5.90;;
20379;SDS011;10349;48.666;8.948;2022-07-23T09:18:42;6.30;;;5.90;;
20379;SDS011;10349;48.666;8.948;2022-07-23T09:21:30;11.53;;;6.03;;
20379;SDS011;10349;48.666;8.948;2022-07-23T09:24:00;6.47;;;6.07;;
20379;SDS011;10349;48.666;8.948;2022-07-23T09:26:28;7.80;;;6.47;;
20379;SDS011;10349;48.666;8.948;2022-07-23T09:31:50;6.23;;;5.50;;
20379;SDS011;10349;48.666;8.948;2022-07-23T09:34:18;6.50;;;5.87;;
20379;SDS011;10349;48.666;8.948;2022-07-23T09:36:46;6.20;;;5.60;;
20379;SDS011;10349;48.666;8.948;2022-07-23T09:39:13;7.07;;;6.50;;
20379;SDS011;10349;48.666;8.948;2022-07-23T09:41:46;7.53;;;6.93;;
20379;SDS011;10349;48.666;8.948;2022-07-23T09:44:14;5.53;;;5.20;;
20379;SDS011;10349;48.666;8.948;2022-07-23T09:46:44;7.97;;;6.27;;
20379;SDS011;10349;48.666;8.948;2022-07-23T09:49:12;6.30;;;5.90;;
20379;SDS011;10349;48.666;8.948;2022-07-23T09:51:47;7.30;;;6.80;;
20379;SDS011;10349;48.666;8.948;2022-07-23T09:56:53;7.20;;;6.60;;
20379;SDS011;10349;48.666;8.948;2022-07-23T09:59:22;7.27;;;6.57;;
20379;SDS011;10349;48.666;8.948;2022-07-23T10:01:54;6.50;;;6.00;;
20379;SDS011;10349;48.666;8.948;2022-07-23T10:04:22;7.50;;;7.00;;
20379;SDS011;10349;48.666;8.948;2022-07-23T10:07:11;7.43;;;6.73;;
20379;SDS011;10349;48.666;8.948;2022-07-23T10:09:51;6.10;;;5.70;;
20379;SDS011;10349;48.666;8.948;2022-07-23T10:12:36;5.97;;;5.57;;
20379;SDS011;10349;48.666;8.948;2022-07-23T10:15:12;5.97;;;5.57;;
20379;SDS011;10349;48.666;8.948;2022-07-23T10:17:37;6.90;;;6.30;;
20379;SDS011;10349;48.666;8.948;2022-07-23T10:20:03;5.37;;;5.07;;
20379;SDS011;10349;48.666;8.948;2022-07-23T10:22:33;6.00;;;5.50;;
20379;SDS011;10349;48.666;8.948;2022-07-23T10:25:22;6.03;;;5.63;;
20379;SDS011;10349;48.666;8.948;2022-07-23T10:36:52;6.13;;;5.60;;
20379;SDS011;10349;48.666;8.948;2022-07-23T10:39:24;6.53;;;6.03;;
20379;SDS011;10349;48.666;8.948;2022-07-23T10:41:53;5.80;;;5.50;;
20379;SDS011;10349;48.666;8.948;2022-07-23T10:44:41;6.13;;;5.80;;
20379;SDS011;10349;48.666;8.948;2022-07-23T10:47:28;6.53;;;6.10;;
20379;SDS011;10349;48.666;8.948;2022-07-23T10:50:21;7.17;;;6.60;;
20379;SDS011;10349;48.666;8.948;2022-07-23T10:58:04;5.50;;;5.20;;
20379;SDS011;10349;48.666;8.948;2022-07-23T11:00:34;6.10;;;5.60;;
20379;SDS011;10349;48.666;8.948;2022-07-23T11:03:02;6.50;;;6.00;;
20379;SDS011;10349;48.666;8.948;2022-07-23T11:05:48;5.00;;;4.60;;
20379;SDS011;10349;48.666;8.948;2022-07-23T11:10:42;5.97;;;5.57;;
20379;SDS011;10349;48.666;8.948;2022-07-23T11:23:59;5.43;;;5.03;;
20379;SDS011;10349;48.666;8.948;2022-07-23T11:34:49;6.00;;;5.53;;
20379;SDS011;10349;48.666;8.948;2022-07-23T11:37:34;8.70;;;5.80;;
20379;SDS011;10349;48.666;8.948;2022-07-23T11:40:11;6.97;;;6.47;;
20379;SDS011;10349;48.666;8.948;2022-07-23T11:42:39;6.07;;;5.67;;
20379;SDS011;10349;48.666;8.948;2022-07-23T11:45:16;6.40;;;5.90;;
20379;SDS011;10349;48.666;8.948;2022-07-23T11:47:42;6.03;;;5.43;;
20379;SDS011;10349;48.666;8.948;2022-07-23T11:50:08;6.53;;;6.03;;
20379;SDS011;10349;48.666;8.948;2022-07-23T11:52:34;7.30;;;6.70;;
20379;SDS011;10349;48.666;8.948;2022-07-23T11:55:04;6.73;;;6.23;;
20379;SDS011;10349;48.666;8.948;2022-07-23T11:57:36;6.53;;;6.07;;
20379;SDS011;10349;48.666;8.948;2022-07-23T12:02:44;7.27;;;6.77;;
20379;SDS011;10349;48.666;8.948;2022-07-23T12:05:15;6.37;;;5.87;;
20379;SDS011;10349;48.666;8.948;2022-07-23T12:07:46;6.67;;;6.27;;
20379;SDS011;10349;48.666;8.948;2022-07-23T12:12:45;6.30;;;5.80;;
20379;SDS011;10349;48.666;8.948;2022-07-23T12:15:14;12.27;;;6.37;;
20379;SDS011;10349;48.666;8.948;2022-07-23T12:17:42;7.80;;;6.20;;
20379;SDS011;10349;48.666;8.948;2022-07-23T12:20:11;6.90;;;6.37;;
20379;SDS011;10349;48.666;8.948;2022-07-23T12:22:42;6.43;;;6.03;;
20379;SDS011;10349;48.666;8.948;2022-07-23T12:25:11;6.50;;;6.00;;
20379;SDS011;10349;48.666;8.948;2022-07-23T12:27:38;7.90;;;6.90;;
20379;SDS011;10349;48.666;8.948;2022-07-23T12:30:21;7.60;;;6.90;;
20379;SDS011;10349;48.666;8.948;2022-07-23T12:32:50;7.20;;;6.60;;
20379;SDS011;10349;48.666;8.948;2022-07-23T12:35:21;6.87;;;6.37;;
20379;SDS011;10349;48.666;8.948;2022-07-23T12:37:49;6.70;;;6.30;;
20379;SDS011;10349;48.666;8.948;2022-07-23T12:42:56;6.73;;;6.23;;
20379;SDS011;10349;48.666;8.948;2022-07-23T12:45:26;7.00;;;6.40;;
20379;SDS011;10349;48.666;8.948;2022-07-23T12:48:00;6.93;;;6.43;;
20379;SDS011;10349;48.666;8.948;2022-07-23T12:50:37;6.03;;;5.63;;
20379;SDS011;10349;48.666;8.948;2022-07-23T12:53:13;7.27;;;6.60;;
20379;SDS011;10349;48.666;8.948;2022-07-23T12:55:44;6.10;;;5.60;;
20379;SDS011;10349;48.666;8.948;2022-07-23T13:03:24;7.10;;;6.60;;
20379;SDS011;10349;48.666;8.948;2022-07-23T13:05:53;7.23;;;6.53;;
20379;SDS011;10349;48.666;8.948;2022-07-23T13:08:19;7.00;;;6.40;;
20379;SDS011;10349;48.666;8.948;2022-07-23T13:10:45;6.90;;;6.40;;
20379;SDS011;10349;48.666;8.948;2022-07-23T13:13:13;7.00;;;6.37;;
20379;SDS011;10349;48.666;8.948;2022-07-23T13:15:40;7.97;;;7.10;;
20379;SDS011;10349;48.666;8.948;2022-07-23T13:18:05;5.93;;;5.63;;
20379;SDS011;10349;48.666;8.948;2022-07-23T13:20:31;7.37;;;6.70;;
20379;SDS011;10349;48.666;8.948;2022-07-23T13:22:58;7.07;;;6.57;;
20379;SDS011;10349;48.666;8.948;2022-07-23T13:25:26;6.43;;;5.90;;
20379;SDS011;10349;48.666;8.948;2022-07-23T13:27:52;8.57;;;6.70;;
20379;SDS011;10349;48.666;8.948;2022-07-23T13:30:17;7.13;;;6.63;;
20379;SDS011;10349;48.666;8.948;2022-07-23T13:32:43;7.87;;;7.27;;
20379;SDS011;10349;48.666;8.948;2022-07-23T13:35:09;7.50;;;6.10;;
20379;SDS011;10349;48.666;8.948;2022-07-23T13:37:36;6.50;;;5.90;;
20379;SDS011;10349;48.666;8.948;2022-07-23T13:40:02;7.60;;;6.90;;
20379;SDS011;10349;48.666;8.948;2022-07-23T13:42:28;6.00;;;5.60;;
20379;SDS011;10349;48.666;8.948;2022-07-23T13:44:54;7.07;;;6.57;;
20379;SDS011;10349;48.666;8.948;2022-07-23T13:47:20;7.27;;;6.73;;
20379;SDS011;10349;48.666;8.948;2022-07-23T13:49:46;6.80;;;6.20;;
20379;SDS011;10349;48.666;8.948;2022-07-23T13:52:11;6.33;;;5.80;;
20379;SDS011;10349;48.666;8.948;2022-07-23T13:54:37;7.30;;;6.60;;
20379;SDS011;10349;48.666;8.948;2022-07-23T13:57:02;8.47;;;7.67;;
20379;SDS011;10349;48.666;8.948;2022-07-23T13:59:28;7.17;;;6.67;;
20379;SDS011;10349;48.666;8.948;2022-07-23T14:01:54;11.63;;;7.00;;
20379;SDS011;10349;48.666;8.948;2022-07-23T14:04:20;8.43;;;7.30;;
20379;SDS011;10349;48.666;8.948;2022-07-23T14:06:46;7.20;;;6.70;;
20379;SDS011;10349;48.666;8.948;2022-07-23T14:09:12;7.63;;;6.97;;
20379;SDS011;10349;48.666;8.948;2022-07-23T14:11:38;7.57;;;6.77;;
20379;SDS011;10349;48.666;8.948;2022-07-23T14:14:04;6.80;;;6.20;;
20379;SDS011;10349;48.666;8.948;2022-07-23T14:16:30;7.63;;;7.03;;
20379;SDS011;10349;48.666;8.948;2022-07-23T14:18:56;7.23;;;6.53;;
20379;SDS011;10349;48.666;8.948;2022-07-23T14:21:21;7.23;;;6.67;;
20379;SDS011;10349;48.666;8.948;2022-07-23T14:23:47;8.53;;;7.93;;
20379;SDS011;10349;48.666;8.948;2022-07-23T14:26:13;7.27;;;6.70;;
20379;SDS011;10349;48.666;8.948;2022-07-23T14:28:38;7.30;;;6.70;;
20379;SDS011;10349;48.666;8.948;2022-07-23T14:31:04;6.70;;;6.20;;
20379;SDS011;10349;48.666;8.948;2022-07-23T14:33:30;7.60;;;7.00;;
20379;SDS011;10349;48.666;8.948;2022-07-23T14:35:55;6.47;;;6.07;;
20379;SDS011;10349;48.666;8.948;2022-07-23T14:38:21;6.60;;;6.10;;
20379;SDS011;10349;48.666;8.948;2022-07-23T14:40:47;7.20;;;6.70;;
20379;SDS011;10349;48.666;8.948;2022-07-23T14:43:12;8.07;;;7.47;;
20379;SDS011;10349;48.666;8.948;2022-07-23T14:45:38;7.47;;;6.87;;
20379;SDS011;10349;48.666;8.948;2022-07-23T14:48:04;7.23;;;6.63;;
20379;SDS011;10349;48.666;8.948;2022-07-23T14:50:30;7.73;;;7.03;;
20379;SDS011;10349;48.666;8.948;2022-07-23T14:52:55;7.80;;;7.07;;
20379;SDS011;10349;48.666;8.948;2022-07-23T14:55:21;7.40;;;6.80;;
20379;SDS011;10349;48.666;8.948;2022-07-23T14:57:47;7.10;;;6.57;;
20379;SDS011;10349;48.666;8.948;2022-07-23T15:00:13;7.57;;;6.97;;
20379;SDS011;10349;48.666;8.948;2022-07-23T15:02:39;7.23;;;6.73;;
20379;SDS011;10349;48.666;8.948;2022-07-23T15:05:05;7.17;;;6.67;;
20379;SDS011;10349;48.666;8.948;2022-07-23T15:07:31;7.37;;;6.73;;
20379;SDS011;10349;48.666;8.948;2022-07-23T15:09:57;7.03;;;6.33;;
20379;SDS011;10349;48.666;8.948;2022-07-23T15:12:23;6.93;;;6.50;;
20379;SDS011;10349;48.666;8.948;2022-07-23T15:14:48;7.03;;;6.33;;
20379;SDS011;10349;48.666;8.948;2022-07-23T15:17:14;7.23;;;6.73;;
20379;SDS011;10349;48.666;8.948;2022-07-23T15:19:40;7.17;;;6.67;;
20379;SDS011;10349;48.666;8.948;2022-07-23T15:22:06;7.70;;;7.20;;
20379;SDS011;10349;48.666;8.948;2022-07-23T15:24:31;6.40;;;6.00;;
20379;SDS011;10349;48.666;8.948;2022-07-23T15:26:57;6.43;;;5.93;;
20379;SDS011;10349;48.666;8.948;2022-07-23T15:29:23;6.77;;;6.27;;
20379;SDS011;10349;48.666;8.948;2022-07-23T15:31:49;7.20;;;6.70;;
20379;SDS011;10349;48.666;8.948;2022-07-23T15:34:15;6.80;;;6.40;;
20379;SDS011;10349;48.666;8.948;2022-07-23T15:36:40;7.83;;;7.23;;
20379;SDS011;10349;48.666;8.948;2022-07-23T15:39:06;6.53;;;5.77;;
20379;SDS011;10349;48.666;8.948;2022-07-23T15:41:33;6.23;;;5.93;;
20379;SDS011;10349;48.666;8.948;2022-07-23T15:43:58;6.70;;;6.20;;
20379;SDS011;10349;48.666;8.948;2022-07-23T15:46:25;7.50;;;6.90;;
20379;SDS011;10349;48.666;8.948;2022-07-23T15:48:50;6.73;;;6.23;;
20379;SDS011;10349;48.666;8.948;2022-07-23T15:51:16;7.20;;;6.70;;